Time;durP1;ratioP1;P1;durP2;ratioP2;P2;SDS_P1;SDS_P2;PMS_P1;PMS_P2;Temp;Humidity;BMP_temperature;BMP_pressure;BME280_temperature;BME280_humidity;BME280_pressure;Samples;Min_cycle;Max_cycle;Signal;HPM_P1;HPM_P2
2022/04/13 00:01:42;;;;;;;2.03;1.30;;;10.20;92.80;;;;;;5111184;28;20975;-45
2022/04/13 00:04:09;;;;;;;1.37;1.10;;;10.20;92.30;;;;;;5110697;28;20442;-48
2022/04/13 00:06:38;;;;;;;2.43;1.30;;;10.10;92.50;;;;;;5110988;28;20442;-44
2022/04/13 00:09:06;;;;;;;2.03;1.20;;;10.10;93.00;;;;;;5110919;28;20451;-46
2022/04/13 00:11:33;;;;;;;1.20;1.10;;;10.20;93.50;;;;;;5110530;28;20488;-46
2022/04/13 00:14:00;;;;;;;1.30;1.20;;;10.20;92.60;;;;;;5110605;28;20481;-45
2022/04/13 00:16:27;;;;;;;1.83;1.60;;;10.10;92.50;;;;;;5112113;28;20473;-47
2022/04/13 00:18:54;;;;;;;2.33;1.30;;;10.00;93.30;;;;;;5114371;28;20474;-44
2022/04/13 00:21:22;;;;;;;1.90;1.20;;;10.20;93.50;;;;;;5114384;28;20530;-49
2022/04/13 00:23:50;;;;;;;1.80;1.43;;;10.20;93.30;;;;;;5114366;28;20438;-45
2022/04/13 00:26:17;;;;;;;1.43;1.17;;;10.10;93.10;;;;;;5114525;28;20487;-45
2022/04/13 00:28:44;;;;;;;1.20;1.10;;;10.00;93.20;;;;;;5114291;28;20861;-44
2022/04/13 00:31:11;;;;;;;1.27;1.03;;;9.80;94.00;;;;;;5114300;28;20470;-46
2022/04/13 00:33:38;;;;;;;1.60;1.00;;;9.70;94.30;;;;;;5113752;28;20506;-45
2022/04/13 00:36:05;;;;;;;2.90;1.17;;;9.70;94.70;;;;;;5113937;28;20804;-46
2022/04/13 00:38:32;;;;;;;1.30;1.20;;;9.80;94.40;;;;;;5114189;28;20477;-45
2022/04/13 00:41:00;;;;;;;2.27;1.10;;;9.70;94.10;;;;;;5114235;28;20495;-46
2022/04/13 00:43:27;;;;;;;1.13;1.03;;;9.80;94.10;;;;;;5113550;28;20434;-45
2022/04/13 00:45:54;;;;;;;1.70;1.60;;;9.80;94.10;;;;;;5113750;28;20545;-45
2022/04/13 00:48:29;;;;;;;1.83;1.50;;;9.70;93.90;;;;;;5113874;28;20492;-50
2022/04/13 00:50:56;;;;;;;2.07;1.50;;;9.60;94.30;;;;;;5114007;28;20438;-45
2022/04/13 00:53:24;;;;;;;1.97;1.10;;;9.80;94.20;;;;;;5113557;28;20569;-45
2022/04/13 00:55:55;;;;;;;3.03;1.43;;;9.80;94.10;;;;;;5113678;28;20490;-45
2022/04/13 00:58:25;;;;;;;1.70;0.97;;;9.80;94.10;;;;;;5113940;28;20465;-47
2022/04/13 01:00:53;;;;;;;1.80;1.43;;;9.90;94.00;;;;;;5113914;28;20470;-45
2022/04/13 01:03:22;;;;;;;1.90;1.27;;;9.90;94.10;;;;;;5113450;28;20997;-42
2022/04/13 01:05:50;;;;;;;1.37;1.10;;;9.90;93.90;;;;;;5113443;28;20469;-44
2022/04/13 01:08:18;;;;;;;1.20;1.10;;;9.80;93.90;;;;;;5113464;28;20899;-46
2022/04/13 01:10:46;;;;;;;2.73;1.27;;;9.70;93.70;;;;;;5112869;28;20946;-48
2022/04/13 01:13:14;;;;;;;1.77;1.20;;;9.70;94.50;;;;;;5113316;28;20564;-46
2022/04/13 01:15:43;;;;;;;2.83;1.23;;;9.60;94.40;;;;;;5113306;28;20470;-48
2022/04/13 01:18:11;;;;;;;1.20;1.03;;;9.60;94.40;;;;;;5113395;28;20442;-46
2022/04/13 01:20:39;;;;;;;1.50;1.20;;;9.60;94.10;;;;;;5113143;28;20541;-45
2022/04/13 01:23:09;;;;;;;1.97;1.67;;;9.50;93.90;;;;;;5112566;28;20446;-45
2022/04/13 01:25:36;;;;;;;1.60;1.30;;;9.60;94.10;;;;;;5113374;28;20462;-46
2022/04/13 01:28:03;;;;;;;2.70;1.17;;;9.50;93.80;;;;;;5113123;28;20522;-46
2022/04/13 01:30:30;;;;;;;1.13;0.93;;;9.10;94.60;;;;;;5113127;28;20976;-45
2022/04/13 01:32:57;;;;;;;1.90;1.30;;;9.20;95.00;;;;;;5112858;28;20474;-46
2022/04/13 01:35:25;;;;;;;1.70;1.17;;;9.20;95.00;;;;;;5112991;28;20510;-46
2022/04/13 01:37:51;;;;;;;1.57;1.07;;;9.40;94.70;;;;;;5112971;28;20530;-44
2022/04/13 01:40:20;;;;;;;2.00;1.20;;;9.50;94.50;;;;;;5112890;28;20439;-44
2022/04/13 01:42:49;;;;;;;1.23;1.03;;;9.60;94.40;;;;;;5112192;28;20528;-48
2022/04/13 01:45:19;;;;;;;1.70;1.20;;;9.60;94.30;;;;;;5113336;28;20466;-45
2022/04/13 01:47:48;;;;;;;1.70;1.37;;;9.50;94.20;;;;;;5112930;28;20445;-44
2022/04/13 01:50:16;;;;;;;2.03;1.30;;;9.50;94.40;;;;;;5112616;28;20448;-50
2022/04/13 01:52:43;;;;;;;4.50;1.30;;;9.50;94.10;;;;;;5112541;28;20478;-45
2022/04/13 01:55:11;;;;;;;1.80;1.40;;;9.30;94.10;;;;;;5113045;28;20494;-47
2022/04/13 01:57:40;;;;;;;2.07;1.10;;;9.00;94.60;;;;;;5112526;28;20526;-48
2022/04/13 02:00:10;;;;;;;1.43;1.13;;;8.90;94.60;;;;;;5112646;28;20470;-44
2022/04/13 02:02:37;;;;;;;2.73;1.30;;;9.00;95.40;;;;;;5112137;28;20434;-46
2022/04/13 02:05:05;;;;;;;1.40;1.30;;;8.90;95.40;;;;;;5112489;28;20465;-49
2022/04/13 02:07:32;;;;;;;1.60;1.33;;;9.00;94.90;;;;;;5112703;28;20868;-49
2022/04/13 02:09:59;;;;;;;1.40;1.10;;;9.00;95.60;;;;;;5112483;28;20959;-45
2022/04/13 02:12:27;;;;;;;3.80;2.70;;;8.80;95.30;;;;;;5111646;28;20569;-47
2022/04/13 02:14:55;;;;;;;1.43;1.33;;;8.80;95.50;;;;;;5112121;28;20509;-45
2022/04/13 02:17:22;;;;;;;3.93;1.20;;;8.80;95.50;;;;;;5112280;28;20473;-44
2022/04/13 02:19:49;;;;;;;1.50;1.23;;;9.00;95.80;;;;;;5111888;28;20502;-49
2022/04/13 02:22:16;;;;;;;1.13;0.93;;;9.10;95.60;;;;;;5112054;28;20916;-46
2022/04/13 02:24:43;;;;;;;2.80;1.30;;;9.10;94.70;;;;;;5112240;28;20505;-45
2022/04/13 02:27:11;;;;;;;3.30;1.20;;;9.00;94.80;;;;;;5111836;28;20500;-45
2022/04/13 02:29:38;;;;;;;1.53;1.00;;;9.10;95.50;;;;;;5111888;28;20443;-47
2022/04/13 02:32:08;;;;;;;1.50;1.40;;;9.10;95.10;;;;;;5112130;28;20435;-45
2022/04/13 02:34:34;;;;;;;2.13;1.40;;;9.00;95.10;;;;;;5111747;28;20508;-45
2022/04/13 02:37:01;;;;;;;1.73;1.17;;;9.20;95.40;;;;;;5112171;28;20473;-45
2022/04/13 02:39:28;;;;;;;1.80;1.57;;;9.20;94.80;;;;;;5111409;28;20438;-46
2022/04/13 02:41:55;;;;;;;1.40;1.20;;;9.00;94.80;;;;;;5111672;28;20473;-45
2022/04/13 02:44:22;;;;;;;1.30;1.20;;;9.00;95.00;;;;;;5111249;28;20450;-46
2022/04/13 02:46:49;;;;;;;1.27;1.17;;;9.10;95.30;;;;;;5111879;28;20470;-46
2022/04/13 02:49:17;;;;;;;1.83;1.40;;;8.90;95.10;;;;;;5111746;28;20429;-44
2022/04/13 02:51:44;;;;;;;1.40;1.20;;;9.00;95.10;;;;;;5111551;28;20439;-45
2022/04/13 02:54:11;;;;;;;1.60;1.10;;;8.90;95.40;;;;;;5111214;28;20558;-47
2022/04/13 02:56:38;;;;;;;1.20;0.97;;;8.90;95.30;;;;;;5111441;28;20482;-45
2022/04/13 02:59:05;;;;;;;1.20;1.07;;;9.10;95.10;;;;;;5111513;28;20979;-45
2022/04/13 03:01:32;;;;;;;5.67;1.27;;;9.10;95.20;;;;;;5111598;28;20870;-48
2022/04/13 03:03:59;;;;;;;1.30;0.93;;;8.90;95.00;;;;;;5111323;28;20462;-45
2022/04/13 03:06:27;;;;;;;1.90;0.97;;;8.70;95.40;;;;;;5111497;28;20443;-46
2022/04/13 03:09:43;;;;;;;1.33;1.20;;;8.70;95.30;;;;;;5112010;28;20932;-44
2022/04/13 03:12:12;;;;;;;2.30;1.37;;;8.60;95.60;;;;;;5110993;28;20442;-45
2022/04/13 03:18:01;;;;;;;2.10;1.00;;;8.80;95.40;;;;;;5111484;28;20482;-43
2022/04/13 03:20:28;;;;;;;1.20;1.00;;;9.00;95.30;;;;;;5111222;28;20443;-42
2022/04/13 03:22:56;;;;;;;2.13;1.10;;;8.90;94.80;;;;;;5110929;28;20462;-42
2022/04/13 03:25:23;;;;;;;1.00;0.90;;;8.60;95.20;;;;;;5111552;28;20502;-42
2022/04/13 03:27:50;;;;;;;1.83;1.20;;;8.60;95.50;;;;;;5111481;28;20509;-42
2022/04/13 03:30:18;;;;;;;1.40;1.00;;;8.70;95.90;;;;;;5111401;28;20479;-42
2022/04/13 03:32:45;;;;;;;2.10;1.67;;;8.80;95.70;;;;;;5110729;28;21060;-42
2022/04/13 03:35:13;;;;;;;1.93;1.00;;;8.80;95.60;;;;;;5111290;28;20593;-42
2022/04/13 03:37:40;;;;;;;3.60;1.10;;;8.90;95.90;;;;;;5111311;28;20495;-42
2022/04/13 03:40:11;;;;;;;1.20;1.10;;;8.70;95.50;;;;;;5111477;28;20442;-42
2022/04/13 03:42:40;;;;;;;1.07;0.97;;;8.60;95.70;;;;;;5111056;28;20498;-42
2022/04/13 03:45:09;;;;;;;1.17;1.07;;;8.40;95.90;;;;;;5111408;28;20497;-42
2022/04/13 03:47:37;;;;;;;1.87;1.73;;;8.30;96.30;;;;;;5111328;28;20478;-44
2022/04/13 03:50:05;;;;;;;3.13;1.63;;;8.20;96.60;;;;;;5111186;28;20438;-44
2022/04/13 03:52:33;;;;;;;2.87;1.63;;;8.20;96.60;;;;;;5114491;28;20439;-44
2022/04/13 03:55:00;;;;;;;2.40;1.80;;;8.20;96.60;;;;;;5114751;28;20454;-44
2022/04/13 03:57:28;;;;;;;1.47;1.37;;;8.20;96.20;;;;;;5115208;28;20438;-44
2022/04/13 03:59:55;;;;;;;1.97;1.30;;;8.00;96.40;;;;;;5115256;28;20474;-45
2022/04/13 04:02:22;;;;;;;1.60;1.27;;;8.10;96.70;;;;;;5114652;28;20473;-44
2022/04/13 04:04:49;;;;;;;1.43;1.33;;;8.10;97.10;;;;;;5114619;28;20485;-44
2022/04/13 04:07:16;;;;;;;1.87;1.33;;;8.10;96.60;;;;;;5115256;28;20470;-44
2022/04/13 04:09:44;;;;;;;1.57;1.20;;;8.00;97.10;;;;;;5114978;28;20529;-44
2022/04/13 04:12:11;;;;;;;2.00;1.80;;;8.20;97.70;;;;;;5114902;28;20460;-44
2022/04/13 04:14:39;;;;;;;2.43;1.50;;;8.30;97.30;;;;;;5114233;28;20905;-44
2022/04/13 04:17:06;;;;;;;2.00;1.50;;;8.40;96.70;;;;;;5114606;28;20537;-43
2022/04/13 04:19:34;;;;;;;1.50;1.40;;;8.40;96.70;;;;;;5114362;28;20442;-44
2022/04/13 04:22:01;;;;;;;1.10;1.00;;;8.40;96.80;;;;;;5114414;28;20537;-44
2022/04/13 04:24:28;;;;;;;2.20;1.13;;;8.30;97.00;;;;;;5114464;28;20470;-44
2022/04/13 04:26:55;;;;;;;1.37;1.27;;;8.40;96.90;;;;;;5114514;28;20812;-44
2022/04/13 04:29:22;;;;;;;1.63;1.23;;;8.20;96.40;;;;;;5114443;28;20784;-44
2022/04/13 04:31:51;;;;;;;1.47;1.37;;;8.40;96.70;;;;;;5114094;28;20447;-44
2022/04/13 04:34:19;;;;;;;1.40;1.10;;;8.50;96.70;;;;;;5114218;28;20559;-44
2022/04/13 04:36:46;;;;;;;4.50;1.70;;;8.50;96.10;;;;;;5114162;28;20972;-44
2022/04/13 04:39:13;;;;;;;2.17;1.40;;;8.60;96.70;;;;;;5113999;28;20466;-44
2022/04/13 04:41:41;;;;;;;1.30;1.10;;;8.70;96.80;;;;;;5113726;28;20495;-44
2022/04/13 04:44:08;;;;;;;2.00;1.30;;;8.50;96.40;;;;;;5113824;28;20949;-44
2022/04/13 04:46:35;;;;;;;1.30;1.20;;;8.20;96.50;;;;;;5113908;28;20983;-43
2022/04/13 04:49:04;;;;;;;1.10;1.00;;;8.10;96.90;;;;;;5114085;28;20474;-44
2022/04/13 04:51:31;;;;;;;1.87;1.20;;;8.10;97.40;;;;;;5114043;28;20471;-44
2022/04/13 04:53:58;;;;;;;1.20;1.00;;;8.20;97.60;;;;;;5113883;28;20470;-44
2022/04/13 04:56:25;;;;;;;1.20;1.10;;;8.30;97.30;;;;;;5113561;28;21012;-44
2022/04/13 04:58:52;;;;;;;1.73;1.20;;;8.30;97.30;;;;;;5113797;28;20439;-44
2022/04/13 05:01:20;;;;;;;3.30;3.00;;;8.20;97.40;;;;;;5113749;28;20496;-45
2022/04/13 05:03:49;;;;;;;4.00;3.23;;;8.10;97.50;;;;;;5113033;28;21005;-44
2022/04/13 05:06:20;;;;;;;1.90;1.80;;;8.10;97.90;;;;;;5113455;28;20462;-44
2022/04/13 05:08:47;;;;;;;2.57;2.10;;;8.10;97.80;;;;;;5113589;28;20450;-44
2022/04/13 05:11:15;;;;;;;2.60;2.40;;;8.10;98.00;;;;;;5113120;28;20959;-44
2022/04/13 05:13:41;;;;;;;3.83;2.30;;;8.20;98.30;;;;;;5113207;28;20473;-44
2022/04/13 05:16:09;;;;;;;2.33;2.13;;;8.10;98.00;;;;;;5112815;28;20552;-44
2022/04/13 05:18:35;;;;;;;3.50;2.23;;;8.10;98.70;;;;;;5113808;28;20446;-44
2022/04/13 05:21:04;;;;;;;17.53;16.33;;;8.00;99.60;;;;;;5113079;28;20470;-44
2022/04/13 05:23:32;;;;;;;3.90;3.40;;;8.10;99.90;;;;;;5112608;28;20974;-44
2022/04/13 05:25:59;;;;;;;3.83;3.53;;;8.10;99.90;;;;;;5112213;28;20462;-44
2022/04/13 05:28:26;;;;;;;2.50;2.00;;;8.20;99.90;;;;;;5112885;28;20879;-44
2022/04/13 05:30:53;;;;;;;3.13;2.23;;;8.40;99.90;;;;;;5101324;28;20468;-44
2022/04/13 05:33:20;;;;;;;3.97;3.57;;;8.40;99.90;;;;;;5092287;28;20471;-44
2022/04/13 05:35:47;;;;;;;4.20;2.80;;;8.50;99.90;;;;;;5092502;28;21024;-45
2022/04/13 05:38:14;;;;;;;8.93;2.50;;;8.60;99.50;;;;;;5092464;28;20964;-44
2022/04/13 05:40:42;;;;;;;2.43;1.80;;;8.70;99.60;;;;;;5092555;28;20784;-44
2022/04/13 05:43:09;;;;;;;3.43;1.83;;;8.80;99.70;;;;;;5092568;28;20441;-44
2022/04/13 05:45:36;;;;;;;3.77;2.23;;;9.00;99.90;;;;;;5092631;28;20463;-44
2022/04/13 05:48:03;;;;;;;7.47;2.97;;;9.10;99.90;;;;;;5092329;28;20999;-44
2022/04/13 05:50:30;;;;;;;2.43;1.50;;;9.20;99.90;;;;;;5092386;28;20443;-44
2022/04/13 05:52:57;;;;;;;3.70;2.27;;;9.20;99.90;;;;;;5092105;28;20442;-44
2022/04/13 05:55:24;;;;;;;6.27;5.23;;;9.40;99.90;;;;;;5092242;28;20483;-45
2022/04/13 05:57:52;;;;;;;4.47;3.00;;;9.50;99.90;;;;;;5092260;28;20475;-44
2022/04/13 06:00:20;;;;;;;2.57;1.83;;;9.40;99.90;;;;;;5092516;28;20485;-44
2022/04/13 06:02:47;;;;;;;3.27;2.00;;;9.30;99.80;;;;;;5091410;28;20482;-44
2022/04/13 06:05:14;;;;;;;7.97;3.27;;;9.30;99.40;;;;;;5090737;28;20455;-45
2022/04/13 06:07:42;;;;;;;3.63;2.20;;;9.50;99.90;;;;;;5090757;28;20914;-44
2022/04/13 06:10:10;;;;;;;3.90;2.47;;;9.70;99.90;;;;;;5091604;28;20454;-44
2022/04/13 06:12:37;;;;;;;13.27;11.93;;;9.80;99.90;;;;;;5091018;28;20504;-44
2022/04/13 06:15:08;;;;;;;19.57;16.40;;;10.00;99.90;;;;;;5091033;28;20581;-44
2022/04/13 06:17:35;;;;;;;12.63;7.70;;;10.00;99.90;;;;;;5091489;28;20440;-45
2022/04/13 06:20:02;;;;;;;4.27;2.87;;;10.00;99.90;;;;;;5091729;28;20443;-44
2022/04/13 06:22:32;;;;;;;2.53;1.80;;;9.90;99.90;;;;;;5091513;28;20968;-45
2022/04/13 06:25:02;;;;;;;3.93;1.70;;;9.90;99.90;;;;;;5091849;28;21025;-45
2022/04/13 06:27:29;;;;;;;3.10;1.70;;;10.10;99.90;;;;;;5091747;28;20470;-45
2022/04/13 06:29:56;;;;;;;15.57;3.10;;;10.30;99.90;;;;;;5090450;28;20440;-44
2022/04/13 06:32:32;;;;;;;3.00;2.20;;;10.40;99.90;;;;;;5089954;28;20494;-44
2022/04/13 06:34:59;;;;;;;19.30;9.30;;;10.50;99.90;;;;;;5090488;28;20486;-44
2022/04/13 06:37:26;;;;;;;22.20;5.70;;;10.50;99.90;;;;;;5101962;28;20470;-44
2022/04/13 06:39:53;;;;;;;8.60;3.00;;;10.50;99.90;;;;;;5111749;28;20443;-45
2022/04/13 06:42:22;;;;;;;5.60;2.47;;;10.60;99.90;;;;;;5111738;28;20439;-44
2022/04/13 06:44:50;;;;;;;10.40;3.03;;;10.60;99.90;;;;;;5111425;28;20463;-45
2022/04/13 06:47:18;;;;;;;11.37;2.90;;;10.80;99.90;;;;;;5111923;28;20443;-44
2022/04/13 06:49:46;;;;;;;2.33;1.60;;;10.90;99.90;;;;;;5111636;28;20446;-44
2022/04/13 06:52:14;;;;;;;2.40;1.57;;;11.00;99.90;;;;;;5111787;28;20491;-45
2022/04/13 06:54:40;;;;;;;3.00;2.70;;;11.10;99.90;;;;;;5111455;28;20987;-44
2022/04/13 06:57:08;;;;;;;11.03;7.40;;;11.20;99.90;;;;;;5111756;28;20470;-45
2022/04/13 06:59:35;;;;;;;9.10;6.30;;;11.20;99.90;;;;;;5110390;28;21012;-45
2022/04/13 07:02:02;;;;;;;4.43;3.87;;;11.20;99.90;;;;;;5109601;28;20431;-44
2022/04/13 07:04:29;;;;;;;4.87;3.50;;;11.20;99.90;;;;;;5107389;28;20495;-42
2022/04/13 07:06:58;;;;;;;6.67;4.10;;;11.10;99.90;;;;;;5109797;28;20968;-42
2022/04/13 07:09:25;;;;;;;8.40;6.03;;;11.10;99.90;;;;;;5110008;28;20443;-43
2022/04/13 07:11:51;;;;;;;6.53;5.80;;;11.20;99.90;;;;;;5109926;28;20523;-44
2022/04/13 07:14:20;;;;;;;7.57;5.30;;;11.30;99.90;;;;;;5110306;28;20466;-43
2022/04/13 07:16:47;;;;;;;10.47;7.23;;;11.40;99.90;;;;;;5111108;28;20565;-43
2022/04/13 07:19:14;;;;;;;7.57;5.20;;;11.40;99.90;;;;;;5110906;28;20521;-42
2022/04/13 07:21:41;;;;;;;5.23;3.30;;;11.40;99.90;;;;;;5110868;28;20438;-42
2022/04/13 07:24:10;;;;;;;2.67;2.20;;;11.50;99.90;;;;;;5110970;28;20466;-43
2022/04/13 07:26:37;;;;;;;3.63;2.17;;;11.60;99.90;;;;;;5113223;28;20466;-42
2022/04/13 07:29:04;;;;;;;4.03;2.50;;;11.60;99.90;;;;;;5114233;28;20442;-43
2022/04/13 07:31:33;;;;;;;8.57;6.20;;;11.60;99.90;;;;;;5113963;28;20530;-43
2022/04/13 07:34:00;;;;;;;8.27;7.10;;;11.60;99.90;;;;;;5113729;28;21027;-43
2022/04/13 07:36:27;;;;;;;5.70;4.40;;;11.80;99.90;;;;;;5113982;28;20479;-43
2022/04/13 07:38:53;;;;;;;5.43;4.60;;;11.90;99.90;;;;;;5113910;28;20496;-43
2022/04/13 07:41:22;;;;;;;6.13;3.97;;;12.10;99.90;;;;;;5114127;28;20442;-43
2022/04/13 07:43:49;;;;;;;5.33;3.70;;;12.20;99.90;;;;;;5114720;28;20470;-44
2022/04/13 07:46:17;;;;;;;3.53;3.23;;;12.40;99.90;;;;;;5115181;28;20554;-42
2022/04/13 07:48:44;;;;;;;4.53;3.30;;;12.60;99.60;;;;;;5114442;28;20474;-42
2022/04/13 07:51:11;;;;;;;9.70;3.73;;;12.70;98.90;;;;;;5113733;28;20471;-43
2022/04/13 07:53:38;;;;;;;2.60;2.40;;;12.80;99.40;;;;;;5112596;28;20470;-43
2022/04/13 07:56:05;;;;;;;4.97;3.37;;;12.80;99.70;;;;;;5112685;28;20485;-44
2022/04/13 07:58:33;;;;;;;3.40;3.10;;;12.60;99.90;;;;;;5112790;28;20957;-43
2022/04/13 08:01:00;;;;;;;4.77;3.83;;;12.70;99.60;;;;;;5112263;28;20944;-42
2022/04/13 08:03:27;;;;;;;4.70;3.40;;;12.80;99.80;;;;;;5112285;28;20477;-43
2022/04/13 08:05:54;;;;;;;3.10;2.57;;;12.80;99.90;;;;;;5112928;28;20451;-43
2022/04/13 08:08:21;;;;;;;2.60;1.80;;;12.70;99.30;;;;;;5114643;28;20477;-44
2022/04/13 08:10:48;;;;;;;2.00;1.60;;;12.80;98.10;;;;;;5114615;28;20462;-44
2022/04/13 08:13:15;;;;;;;2.30;1.80;;;12.80;95.80;;;;;;5112871;28;20511;-43
2022/04/13 08:15:43;;;;;;;2.47;1.17;;;12.90;97.50;;;;;;5114090;28;20565;-43
2022/04/13 08:18:10;;;;;;;3.93;1.80;;;13.00;96.50;;;;;;5113713;28;20466;-44
2022/04/13 08:20:38;;;;;;;21.27;11.50;;;13.10;94.70;;;;;;5112896;28;20530;-43
2022/04/13 08:23:05;;;;;;;19.70;17.93;;;13.20;95.40;;;;;;5112724;28;20945;-43
2022/04/13 08:25:32;;;;;;;6.00;4.47;;;13.40;96.00;;;;;;5098764;28;20535;-43
2022/04/13 08:27:59;;;;;;;2.60;1.80;;;13.50;95.30;;;;;;5094512;28;20467;-42
2022/04/13 08:30:26;;;;;;;4.07;2.00;;;13.50;93.60;;;;;;5092251;28;20482;-43
2022/04/13 08:32:54;;;;;;;2.57;2.30;;;13.60;92.70;;;;;;5092564;28;20816;-43
2022/04/13 08:35:21;;;;;;;2.53;2.33;;;13.70;92.60;;;;;;5093764;28;20877;-44
2022/04/13 08:37:48;;;;;;;2.60;1.70;;;13.80;93.10;;;;;;5093090;28;20471;-43
2022/04/13 08:40:16;;;;;;;3.43;2.10;;;13.90;91.20;;;;;;5093126;28;20522;-44
2022/04/13 08:42:47;;;;;;;2.40;1.50;;;14.10;91.90;;;;;;5092185;28;20522;-43
2022/04/13 08:45:21;;;;;;;6.70;1.50;;;14.30;90.30;;;;;;5091933;28;20463;-44
2022/04/13 08:47:49;;;;;;;2.77;1.17;;;14.40;90.20;;;;;;5092492;28;20450;-43
2022/04/13 08:50:19;;;;;;;3.60;1.73;;;14.60;91.30;;;;;;5092217;28;20440;-43
2022/04/13 08:52:51;;;;;;;2.53;1.53;;;14.70;89.20;;;;;;5092007;28;20435;-44
2022/04/13 08:55:20;;;;;;;2.40;1.87;;;14.90;89.80;;;;;;5092269;28;20559;-44
2022/04/13 08:57:50;;;;;;;1.57;1.40;;;15.10;88.50;;;;;;5093406;28;20514;-44
2022/04/13 09:00:18;;;;;;;1.80;1.53;;;15.30;90.00;;;;;;5092175;28;20475;-43
2022/04/13 09:03:09;;;;;;;3.70;1.37;;;15.50;89.50;;;;;;5092976;28;20439;-44
2022/04/13 09:05:39;;;;;;;4.63;1.77;;;15.80;85.00;;;;;;5091625;28;20456;-43
2022/04/13 09:08:13;;;;;;;1.77;1.50;;;16.10;82.50;;;;;;5092044;28;20444;-44
2022/04/13 09:10:41;;;;;;;3.30;1.80;;;16.30;86.10;;;;;;5091144;28;20442;-43
2022/04/13 09:13:10;;;;;;;1.80;1.10;;;16.50;86.00;;;;;;5091479;28;20440;-43
2022/04/13 09:15:39;;;;;;;22.90;5.30;;;16.50;81.40;;;;;;5092507;28;20712;-46
2022/04/13 09:18:08;;;;;;;2.60;1.33;;;16.70;83.50;;;;;;5091292;28;20461;-46
2022/04/13 09:20:35;;;;;;;1.23;1.10;;;16.70;84.70;;;;;;5091418;28;20474;-46
2022/04/13 09:23:04;;;;;;;2.93;1.40;;;16.80;81.10;;;;;;5091347;28;20474;-48
2022/04/13 09:25:33;;;;;;;3.73;1.40;;;17.00;81.10;;;;;;5092750;28;21211;-45
2022/04/13 09:28:01;;;;;;;3.73;1.40;;;17.00;79.40;;;;;;5091889;28;20826;-44
2022/04/13 09:30:28;;;;;;;1.53;1.33;;;17.10;78.00;;;;;;5092714;28;20500;-44
2022/04/13 09:32:56;;;;;;;1.97;1.73;;;17.20;81.10;;;;;;5092594;28;20535;-45
2022/04/13 09:35:22;;;;;;;1.87;1.30;;;17.30;78.40;;;;;;5092686;28;20515;-44
2022/04/13 09:37:49;;;;;;;1.50;1.40;;;17.40;79.60;;;;;;5092769;28;20802;-44
2022/04/13 09:40:35;;;;;;;2.70;1.40;;;17.40;77.60;;;;;;5092866;28;20475;-44
2022/04/13 09:43:07;;;;;;;1.87;1.20;;;17.60;79.10;;;;;;5092130;28;20999;-45
2022/04/13 09:45:35;;;;;;;3.07;1.40;;;17.50;77.90;;;;;;5092847;28;20459;-45
2022/04/13 09:48:06;;;;;;;2.73;1.33;;;17.80;80.50;;;;;;5092580;28;20873;-45
2022/04/13 09:50:34;;;;;;;1.93;1.67;;;18.00;77.90;;;;;;5092590;28;20455;-44
2022/04/13 09:53:03;;;;;;;2.37;1.47;;;18.00;74.50;;;;;;5091221;28;20444;-45
2022/04/13 09:55:34;;;;;;;1.90;1.37;;;18.10;73.90;;;;;;5090287;28;20559;-47
2022/04/13 09:58:09;;;;;;;4.63;2.00;;;18.10;72.10;;;;;;5090381;28;20475;-45
2022/04/13 10:00:37;;;;;;;2.10;1.90;;;18.10;72.70;;;;;;5090741;28;20439;-45
2022/04/13 10:03:13;;;;;;;2.10;1.60;;;18.10;77.00;;;;;;5090324;28;20463;-45
2022/04/13 10:05:44;;;;;;;4.93;1.83;;;18.10;83.20;;;;;;5090725;28;20459;-45
2022/04/13 10:08:13;;;;;;;4.23;3.00;;;18.20;81.30;;;;;;5091105;28;20953;-45
2022/04/13 10:10:46;;;;;;;4.20;1.50;;;18.40;80.30;;;;;;5091904;28;20482;-46
2022/04/13 10:13:30;;;;;;;3.17;2.17;;;18.70;81.80;;;;;;5091418;28;20808;-45
2022/04/13 10:15:58;;;;;;;2.10;1.30;;;19.00;76.30;;;;;;5091136;28;20898;-46
2022/04/13 10:18:25;;;;;;;4.17;3.20;;;19.10;76.30;;;;;;5091889;28;20444;-44
2022/04/13 10:20:52;;;;;;;6.97;2.80;;;19.10;72.40;;;;;;5091522;28;20443;-45
2022/04/13 10:23:19;;;;;;;2.90;1.70;;;19.10;76.90;;;;;;5091365;28;20435;-45
2022/04/13 10:25:47;;;;;;;2.00;1.80;;;19.00;76.70;;;;;;5091687;28;20487;-46
2022/04/13 10:28:21;;;;;;;1.90;1.57;;;19.00;74.40;;;;;;5091633;28;20467;-45
2022/04/13 10:30:49;;;;;;;6.60;2.43;;;18.90;74.50;;;;;;5091527;28;20439;-45
2022/04/13 10:33:16;;;;;;;3.83;2.13;;;18.80;79.60;;;;;;5090491;28;20444;-47
2022/04/13 10:35:45;;;;;;;6.60;2.50;;;18.90;76.00;;;;;;5089607;28;21057;-45
2022/04/13 10:38:13;;;;;;;3.10;1.50;;;18.80;75.90;;;;;;5089627;28;20439;-47
2022/04/13 10:40:42;;;;;;;2.70;1.37;;;19.00;77.00;;;;;;5089916;28;20970;-45
2022/04/13 10:43:12;;;;;;;3.90;1.73;;;19.10;74.80;;;;;;5089365;28;20501;-46
2022/04/13 10:45:41;;;;;;;3.50;1.73;;;19.30;74.60;;;;;;5089731;28;20951;-47
2022/04/13 10:48:10;;;;;;;3.20;1.87;;;19.40;78.80;;;;;;5088558;28;20471;-46
2022/04/13 10:50:48;;;;;;;2.73;1.30;;;19.60;81.50;;;;;;5090355;28;20448;-45
2022/04/13 10:53:21;;;;;;;64.03;9.37;;;19.90;80.30;;;;;;5091253;28;20439;-45
2022/04/13 10:56:00;;;;;;;5.30;1.47;;;19.80;78.30;;;;;;5091520;28;20475;-46
2022/04/13 10:58:39;;;;;;;2.13;1.40;;;19.90;75.60;;;;;;5091088;28;20443;-44
2022/04/13 11:01:11;;;;;;;3.93;1.40;;;19.80;74.90;;;;;;5090165;28;20439;-48
2022/04/13 11:03:39;;;;;;;9.27;2.57;;;19.80;73.60;;;;;;5090070;28;20867;-49
2022/04/13 11:06:08;;;;;;;19.93;4.50;;;19.80;74.80;;;;;;5090061;28;20521;-45
2022/04/13 11:08:44;;;;;;;2.67;1.80;;;19.90;76.40;;;;;;5090871;28;20479;-46
2022/04/13 11:11:18;;;;;;;6.57;2.47;;;19.90;76.60;;;;;;5090490;28;20534;-45
2022/04/13 11:13:48;;;;;;;8.27;2.40;;;20.00;78.70;;;;;;5090415;28;20816;-45
2022/04/13 11:16:16;;;;;;;11.47;2.07;;;20.10;78.40;;;;;;5090590;28;20980;-47
2022/04/13 11:19:04;;;;;;;4.90;1.57;;;20.20;76.70;;;;;;5090618;28;20978;-48
2022/04/13 11:21:31;;;;;;;1.63;1.40;;;20.30;70.50;;;;;;5090110;28;20451;-45
2022/04/13 11:23:59;;;;;;;1.57;1.40;;;20.30;73.20;;;;;;5089410;28;21009;-45
2022/04/13 11:26:27;;;;;;;5.23;1.93;;;20.30;71.00;;;;;;5089365;28;20487;-45
2022/04/13 11:29:17;;;;;;;4.93;1.93;;;20.50;70.10;;;;;;5089687;28;20435;-45
2022/04/13 11:32:06;;;;;;;2.03;1.73;;;20.50;72.50;;;;;;5089859;28;20447;-45
2022/04/13 11:34:38;;;;;;;2.40;1.80;;;20.50;73.20;;;;;;5089294;28;20940;-45
2022/04/13 11:37:08;;;;;;;1.37;1.00;;;20.70;74.10;;;;;;5089388;28;20532;-45
2022/04/13 11:39:51;;;;;;;5.00;1.50;;;20.70;67.00;;;;;;5089275;28;20440;-45
2022/04/13 11:42:53;;;;;;;1.80;1.30;;;20.60;66.10;;;;;;5089149;28;20480;-44
2022/04/13 11:45:23;;;;;;;3.40;1.30;;;20.50;74.30;;;;;;5090106;28;20459;-45
2022/04/13 11:47:56;;;;;;;1.37;1.27;;;20.50;71.50;;;;;;5090878;28;20902;-44
2022/04/13 11:50:25;;;;;;;3.00;1.40;;;20.40;68.80;;;;;;5090599;28;20446;-49
2022/04/13 11:52:53;;;;;;;1.90;1.10;;;20.40;69.20;;;;;;5090289;28;20439;-45
2022/04/13 11:55:21;;;;;;;2.93;1.57;;;20.50;71.20;;;;;;5088906;28;20557;-46
2022/04/13 11:57:53;;;;;;;7.40;1.57;;;20.70;69.60;;;;;;5102540;28;20446;-45
2022/04/13 12:00:39;;;;;;;3.33;1.27;;;20.70;64.70;;;;;;5110076;28;20529;-44
2022/04/13 12:03:08;;;;;;;2.13;1.27;;;20.80;63.10;;;;;;5109271;28;20522;-47
2022/04/13 12:05:37;;;;;;;5.67;1.50;;;20.90;63.70;;;;;;5109666;28;20451;-45
2022/04/13 12:08:11;;;;;;;1.40;1.00;;;21.00;67.50;;;;;;5109743;28;20441;-45
2022/04/13 12:10:39;;;;;;;8.83;1.67;;;21.20;66.40;;;;;;5110977;28;20434;-46
2022/04/13 12:13:06;;;;;;;2.10;1.30;;;21.30;69.40;;;;;;5112755;28;20434;-45
2022/04/13 12:15:46;;;;;;;1.83;1.40;;;21.30;66.30;;;;;;5114207;28;20984;-45
2022/04/13 12:18:13;;;;;;;43.50;9.83;;;21.20;63.90;;;;;;5112652;28;20470;-49
2022/04/13 12:20:41;;;;;;;10.47;3.40;;;21.30;68.70;;;;;;5111619;28;20825;-48
2022/04/13 12:23:26;;;;;;;5.47;1.53;;;21.30;67.80;;;;;;5112631;28;20523;-48
2022/04/13 12:25:55;;;;;;;6.80;1.03;;;21.30;70.70;;;;;;5112986;28;20462;-46
2022/04/13 12:28:23;;;;;;;2.07;1.20;;;21.40;63.00;;;;;;5113048;28;20928;-47
2022/04/13 12:31:03;;;;;;;6.83;3.87;;;21.40;61.10;;;;;;5107173;28;20556;-45
2022/04/13 12:33:31;;;;;;;8.03;3.03;;;21.40;65.70;;;;;;5092302;28;20471;-47
2022/04/13 12:35:59;;;;;;;7.20;3.00;;;21.40;62.40;;;;;;5092067;28;20911;-44
2022/04/13 12:38:31;;;;;;;3.20;1.60;;;21.50;67.20;;;;;;5093533;28;20483;-47
2022/04/13 12:41:13;;;;;;;21.80;6.97;;;21.60;67.00;;;;;;5093249;28;20440;-45
2022/04/13 12:43:42;;;;;;;7.33;2.53;;;21.70;71.70;;;;;;5093407;28;20455;-44
2022/04/13 12:46:11;;;;;;;15.33;3.70;;;21.70;67.80;;;;;;5092159;28;20455;-44
2022/04/13 12:48:38;;;;;;;25.57;6.67;;;21.80;73.20;;;;;;5092654;28;20467;-45
2022/04/13 12:51:06;;;;;;;19.10;5.00;;;21.80;71.60;;;;;;5093216;28;20552;-46
2022/04/13 12:53:48;;;;;;;34.73;10.23;;;21.90;74.30;;;;;;5092731;28;20523;-48
2022/04/13 12:56:17;;;;;;;9.93;3.00;;;22.00;72.80;;;;;;5091922;28;20472;-45
2022/04/13 12:58:44;;;;;;;50.47;14.53;;;22.10;70.10;;;;;;5090993;28;20480;-48
2022/04/13 13:01:22;;;;;;;6.47;2.47;;;22.10;71.30;;;;;;5092021;28;20475;-45
2022/04/13 13:03:49;;;;;;;13.23;3.33;;;22.20;75.70;;;;;;5091598;28;20447;-46